sensor_id;sensor_type;location;lat;lon;timestamp;pressure;altitude;pressure_sealevel;temperature;humidity
32083;BME280;18597;48.328;7.932;2023-03-21T00:00:36;99816.25;;;5.48;100.00
32083;BME280;18597;48.328;7.932;2023-03-21T00:03:03;99814.66;;;5.32;100.00
32083;BME280;18597;48.328;7.932;2023-03-21T00:05:29;99814.06;;;5.26;100.00
32083;BME280;18597;48.328;7.932;2023-03-21T00:07:55;99812.34;;;5.11;100.00
32083;BME280;18597;48.328;7.932;2023-03-21T00:10:21;99823.69;;;4.99;100.00
32083;BME280;18597;48.328;7.932;2023-03-21T00:12:47;99824.53;;;4.99;100.00
32083;BME280;18597;48.328;7.932;2023-03-21T00:15:24;99817.06;;;4.92;100.00
32083;BME280;18597;48.328;7.932;2023-03-21T00:17:55;99818.91;;;4.90;100.00
32083;BME280;18597;48.328;7.932;2023-03-21T00:20:30;99812.66;;;4.77;100.00
32083;BME280;18597;48.328;7.932;2023-03-21T00:22:59;99811.22;;;4.71;100.00
32083;BME280;18597;48.328;7.932;2023-03-21T00:25:26;99816.06;;;4.79;100.00
32083;BME280;18597;48.328;7.932;2023-03-21T00:27:52;99812.00;;;4.87;100.00
32083;BME280;18597;48.328;7.932;2023-03-21T00:30:18;99815.88;;;4.82;100.00
32083;BME280;18597;48.328;7.932;2023-03-21T00:32:46;99815.31;;;4.91;100.00
32083;BME280;18597;48.328;7.932;2023-03-21T00:35:12;99809.66;;;4.97;100.00
32083;BME280;18597;48.328;7.932;2023-03-21T00:37:37;99811.16;;;4.87;100.00
32083;BME280;18597;48.328;7.932;2023-03-21T00:40:04;99800.88;;;4.66;100.00
32083;BME280;18597;48.328;7.932;2023-03-21T00:42:35;99809.56;;;4.54;100.00
32083;BME280;18597;48.328;7.932;2023-03-21T00:45:02;99806.13;;;4.52;100.00
32083;BME280;18597;48.328;7.932;2023-03-21T00:47:28;99802.13;;;4.45;100.00
32083;BME280;18597;48.328;7.932;2023-03-21T00:49:54;99800.25;;;4.47;100.00
32083;BME280;18597;48.328;7.932;2023-03-21T00:52:21;99798.06;;;4.39;100.00
32083;BME280;18597;48.328;7.932;2023-03-21T00:54:47;99798.56;;;4.30;100.00
32083;BME280;18597;48.328;7.932;2023-03-21T00:57:12;99793.78;;;4.37;100.00
32083;BME280;18597;48.328;7.932;2023-03-21T00:59:38;99792.50;;;4.44;100.00
32083;BME280;18597;48.328;7.932;2023-03-21T01:02:04;99791.28;;;4.50;100.00
32083;BME280;18597;48.328;7.932;2023-03-21T01:04:32;99785.47;;;4.59;100.00
32083;BME280;18597;48.328;7.932;2023-03-21T01:06:59;99782.72;;;4.60;100.00
32083;BME280;18597;48.328;7.932;2023-03-21T01:09:25;99781.22;;;4.56;100.00
32083;BME280;18597;48.328;7.932;2023-03-21T01:11:53;99783.84;;;4.56;100.00
32083;BME280;18597;48.328;7.932;2023-03-21T01:14:21;99783.44;;;4.48;100.00
32083;BME280;18597;48.328;7.932;2023-03-21T01:16:49;99787.53;;;4.38;100.00
32083;BME280;18597;48.328;7.932;2023-03-21T01:19:17;99779.56;;;4.24;100.00
32083;BME280;18597;48.328;7.932;2023-03-21T01:21:44;99787.22;;;4.28;100.00
32083;BME280;18597;48.328;7.932;2023-03-21T01:24:10;99784.41;;;4.15;100.00
32083;BME280;18597;48.328;7.932;2023-03-21T01:26:36;99780.59;;;4.05;100.00
32083;BME280;18597;48.328;7.932;2023-03-21T01:29:03;99781.31;;;3.93;100.00
32083;BME280;18597;48.328;7.932;2023-03-21T01:31:30;99776.69;;;3.81;100.00
32083;BME280;18597;48.328;7.932;2023-03-21T01:33:56;99777.34;;;3.69;100.00
32083;BME280;18597;48.328;7.932;2023-03-21T01:36:24;99773.63;;;3.73;100.00
32083;BME280;18597;48.328;7.932;2023-03-21T01:38:51;99768.16;;;3.76;100.00
32083;BME280;18597;48.328;7.932;2023-03-21T01:41:33;99766.38;;;3.76;100.00
32083;BME280;18597;48.328;7.932;2023-03-21T01:44:00;99767.50;;;3.72;100.00
32083;BME280;18597;48.328;7.932;2023-03-21T01:46:40;99768.00;;;3.79;100.00
32083;BME280;18597;48.328;7.932;2023-03-21T01:49:17;99769.38;;;3.86;100.00
32083;BME280;18597;48.328;7.932;2023-03-21T01:51:49;99761.25;;;3.89;100.00
32083;BME280;18597;48.328;7.932;2023-03-21T01:54:24;99756.91;;;3.88;100.00
32083;BME280;18597;48.328;7.932;2023-03-21T01:56:55;99757.34;;;3.96;100.00
32083;BME280;18597;48.328;7.932;2023-03-21T01:59:39;99753.31;;;4.05;100.00
32083;BME280;18597;48.328;7.932;2023-03-21T02:02:10;99755.72;;;4.09;100.00
32083;BME280;18597;48.328;7.932;2023-03-21T02:04:38;99751.97;;;3.98;100.00
32083;BME280;18597;48.328;7.932;2023-03-21T02:07:14;99747.03;;;3.76;100.00
32083;BME280;18597;48.328;7.932;2023-03-21T02:09:48;99754.00;;;3.61;100.00
32083;BME280;18597;48.328;7.932;2023-03-21T02:12:16;99748.72;;;3.61;100.00
32083;BME280;18597;48.328;7.932;2023-03-21T02:14:45;99749.56;;;3.77;100.00
32083;BME280;18597;48.328;7.932;2023-03-21T02:17:27;99751.31;;;3.78;100.00
32083;BME280;18597;48.328;7.932;2023-03-21T02:27:16;99745.84;;;3.66;100.00
32083;BME280;18597;48.328;7.932;2023-03-21T02:30:05;99743.94;;;3.52;100.00
32083;BME280;18597;48.328;7.932;2023-03-21T02:33:22;99733.53;;;3.33;100.00
32083;BME280;18597;48.328;7.932;2023-03-21T02:39:14;99737.28;;;3.29;100.00
32083;BME280;18597;48.328;7.932;2023-03-21T02:42:22;99734.41;;;3.33;100.00
32083;BME280;18597;48.328;7.932;2023-03-21T02:45:20;99736.94;;;3.35;100.00
32083;BME280;18597;48.328;7.932;2023-03-21T02:47:52;99734.31;;;3.35;100.00
32083;BME280;18597;48.328;7.932;2023-03-21T02:50:37;99743.16;;;3.34;100.00
32083;BME280;18597;48.328;7.932;2023-03-21T02:53:08;99729.13;;;3.49;100.00
32083;BME280;18597;48.328;7.932;2023-03-21T02:55:36;99729.66;;;3.56;100.00
32083;BME280;18597;48.328;7.932;2023-03-21T02:58:08;99728.84;;;3.54;100.00
32083;BME280;18597;48.328;7.932;2023-03-21T03:00:36;99733.38;;;3.36;100.00
32083;BME280;18597;48.328;7.932;2023-03-21T03:03:03;99731.16;;;3.28;100.00
32083;BME280;18597;48.328;7.932;2023-03-21T03:05:33;99725.88;;;3.28;100.00
32083;BME280;18597;48.328;7.932;2023-03-21T03:11:21;99715.91;;;3.18;100.00
32083;BME280;18597;48.328;7.932;2023-03-21T03:20:14;99712.56;;;3.30;100.00
32083;BME280;18597;48.328;7.932;2023-03-21T03:22:58;99706.63;;;3.26;100.00
32083;BME280;18597;48.328;7.932;2023-03-21T03:25:41;99704.13;;;3.23;100.00
32083;BME280;18597;48.328;7.932;2023-03-21T03:28:08;99710.19;;;2.92;100.00
32083;BME280;18597;48.328;7.932;2023-03-21T03:30:37;99717.53;;;2.70;100.00
32083;BME280;18597;48.328;7.932;2023-03-21T03:33:04;99716.44;;;2.57;100.00
32083;BME280;18597;48.328;7.932;2023-03-21T03:35:32;99712.28;;;2.53;100.00
32083;BME280;18597;48.328;7.932;2023-03-21T03:38:01;99718.50;;;2.52;100.00
32083;BME280;18597;48.328;7.932;2023-03-21T03:40:40;99714.59;;;2.59;100.00
32083;BME280;18597;48.328;7.932;2023-03-21T03:43:17;99710.50;;;3.03;100.00
32083;BME280;18597;48.328;7.932;2023-03-21T03:45:52;99713.81;;;3.07;100.00
32083;BME280;18597;48.328;7.932;2023-03-21T03:48:29;99708.94;;;2.99;100.00
32083;BME280;18597;48.328;7.932;2023-03-21T03:51:05;99720.00;;;2.90;100.00
32083;BME280;18597;48.328;7.932;2023-03-21T03:53:54;99718.81;;;2.96;100.00
32083;BME280;18597;48.328;7.932;2023-03-21T03:56:22;99721.38;;;2.97;100.00
32083;BME280;18597;48.328;7.932;2023-03-21T03:58:50;99717.56;;;3.03;100.00
32083;BME280;18597;48.328;7.932;2023-03-21T04:01:16;99721.38;;;2.97;100.00
32083;BME280;18597;48.328;7.932;2023-03-21T04:03:45;99720.00;;;2.90;100.00
32083;BME280;18597;48.328;7.932;2023-03-21T04:06:14;99721.38;;;2.97;100.00
32083;BME280;18597;48.328;7.932;2023-03-21T04:08:41;99723.72;;;2.86;100.00
32083;BME280;18597;48.328;7.932;2023-03-21T04:11:08;99725.34;;;2.89;100.00
32083;BME280;18597;48.328;7.932;2023-03-21T04:13:34;99727.28;;;2.85;100.00
32083;BME280;18597;48.328;7.932;2023-03-21T04:16:00;99724.69;;;2.68;100.00
32083;BME280;18597;48.328;7.932;2023-03-21T04:18:26;99715.78;;;2.53;100.00
32083;BME280;18597;48.328;7.932;2023-03-21T04:20:52;99722.75;;;2.54;100.00
32083;BME280;18597;48.328;7.932;2023-03-21T04:23:18;99719.94;;;2.74;100.00
32083;BME280;18597;48.328;7.932;2023-03-21T04:25:45;99725.59;;;2.84;100.00
32083;BME280;18597;48.328;7.932;2023-03-21T04:28:11;99724.72;;;2.84;100.00
32083;BME280;18597;48.328;7.932;2023-03-21T04:30:38;99721.28;;;2.99;100.00
32083;BME280;18597;48.328;7.932;2023-03-21T04:33:04;99726.59;;;2.82;100.00
32083;BME280;18597;48.328;7.932;2023-03-21T04:35:30;99722.22;;;2.65;100.00
32083;BME280;18597;48.328;7.932;2023-03-21T04:37:56;99722.25;;;2.63;100.00
32083;BME280;18597;48.328;7.932;2023-03-21T04:40:22;99711.16;;;2.57;100.00
32083;BME280;18597;48.328;7.932;2023-03-21T04:42:49;99714.16;;;2.50;100.00
32083;BME280;18597;48.328;7.932;2023-03-21T04:45:16;99712.28;;;2.53;100.00
32083;BME280;18597;48.328;7.932;2023-03-21T04:47:42;99712.59;;;2.46;100.00
32083;BME280;18597;48.328;7.932;2023-03-21T04:50:09;99708.41;;;2.60;100.00
32083;BME280;18597;48.328;7.932;2023-03-21T04:52:35;99703.88;;;2.62;100.00
32083;BME280;18597;48.328;7.932;2023-03-21T04:55:01;99716.78;;;2.50;100.00
32083;BME280;18597;48.328;7.932;2023-03-21T04:57:27;99711.06;;;2.42;100.00
32083;BME280;18597;48.328;7.932;2023-03-21T04:59:53;99714.59;;;2.41;100.00
32083;BME280;18597;48.328;7.932;2023-03-21T05:02:19;99708.94;;;2.49;100.00
32083;BME280;18597;48.328;7.932;2023-03-21T05:04:45;99704.81;;;2.61;100.00
32083;BME280;18597;48.328;7.932;2023-03-21T05:07:11;99711.63;;;2.82;100.00
32083;BME280;18597;48.328;7.932;2023-03-21T05:09:37;99704.16;;;2.90;100.00
32083;BME280;18597;48.328;7.932;2023-03-21T05:12:03;99701.59;;;2.89;100.00
32083;BME280;18597;48.328;7.932;2023-03-21T05:14:29;99697.00;;;2.92;100.00
32083;BME280;18597;48.328;7.932;2023-03-21T05:16:55;99710.38;;;2.72;100.00
32083;BME280;18597;48.328;7.932;2023-03-21T05:19:27;99702.78;;;2.83;100.00
32083;BME280;18597;48.328;7.932;2023-03-21T05:22:04;99699.81;;;2.89;100.00
32083;BME280;18597;48.328;7.932;2023-03-21T05:24:31;99695.75;;;2.99;100.00
32083;BME280;18597;48.328;7.932;2023-03-21T05:26:59;99703.84;;;2.96;100.00
32083;BME280;18597;48.328;7.932;2023-03-21T05:29:29;99694.56;;;3.05;100.00
32083;BME280;18597;48.328;7.932;2023-03-21T05:31:57;99692.78;;;3.05;100.00
32083;BME280;18597;48.328;7.932;2023-03-21T05:34:23;99700.78;;;3.04;100.00
32083;BME280;18597;48.328;7.932;2023-03-21T05:36:50;99699.06;;;2.87;100.00
32083;BME280;18597;48.328;7.932;2023-03-21T05:39:16;99695.47;;;2.88;100.00
32083;BME280;18597;48.328;7.932;2023-03-21T05:41:42;99699.97;;;2.86;100.00
32083;BME280;18597;48.328;7.932;2023-03-21T05:44:08;99700.75;;;2.88;100.00
32083;BME280;18597;48.328;7.932;2023-03-21T05:46:33;99704.38;;;3.03;100.00
32083;BME280;18597;48.328;7.932;2023-03-21T05:48:59;99697.56;;;3.15;100.00
32083;BME280;18597;48.328;7.932;2023-03-21T05:51:26;99686.88;;;3.33;100.00
32083;BME280;18597;48.328;7.932;2023-03-21T05:53:52;99705.44;;;3.64;100.00
32083;BME280;18597;48.328;7.932;2023-03-21T05:56:18;99699.44;;;3.76;100.00
32083;BME280;18597;48.328;7.932;2023-03-21T05:58:44;99699.72;;;3.71;100.00
32083;BME280;18597;48.328;7.932;2023-03-21T06:01:10;99706.84;;;3.85;100.00
32083;BME280;18597;48.328;7.932;2023-03-21T06:03:36;99711.19;;;4.02;100.00
32083;BME280;18597;48.328;7.932;2023-03-21T06:06:02;99714.88;;;4.29;100.00
32083;BME280;18597;48.328;7.932;2023-03-21T06:08:29;99712.06;;;4.62;100.00
32083;BME280;18597;48.328;7.932;2023-03-21T06:10:54;99711.06;;;4.93;100.00
32083;BME280;18597;48.328;7.932;2023-03-21T06:13:21;99703.19;;;5.20;100.00
32083;BME280;18597;48.328;7.932;2023-03-21T06:15:46;99694.38;;;5.48;100.00
32083;BME280;18597;48.328;7.932;2023-03-21T06:18:12;99694.31;;;5.77;100.00
32083;BME280;18597;48.328;7.932;2023-03-21T06:20:38;99699.56;;;6.71;100.00
32083;BME280;18597;48.328;7.932;2023-03-21T06:23:04;99694.47;;;8.86;100.00
32083;BME280;18597;48.328;7.932;2023-03-21T06:25:30;99682.53;;;10.34;85.58
32083;BME280;18597;48.328;7.932;2023-03-21T06:27:56;99684.47;;;10.00;83.30
32083;BME280;18597;48.328;7.932;2023-03-21T06:30:22;99696.69;;;10.46;80.56
32083;BME280;18597;48.328;7.932;2023-03-21T06:32:47;99685.84;;;11.81;70.35
32083;BME280;18597;48.328;7.932;2023-03-21T06:35:13;99677.00;;;12.09;67.44
32083;BME280;18597;48.328;7.932;2023-03-21T06:37:39;99692.56;;;10.42;79.74
32083;BME280;18597;48.328;7.932;2023-03-21T06:40:07;99677.53;;;8.87;97.58
32083;BME280;18597;48.328;7.932;2023-03-21T06:42:34;99680.44;;;8.95;98.89
32083;BME280;18597;48.328;7.932;2023-03-21T06:45:00;99687.22;;;8.77;100.00
32083;BME280;18597;48.328;7.932;2023-03-21T06:47:26;99690.56;;;8.68;100.00
32083;BME280;18597;48.328;7.932;2023-03-21T06:49:51;99687.75;;;9.92;92.33
32083;BME280;18597;48.328;7.932;2023-03-21T06:52:17;99671.34;;;10.82;80.08
32083;BME280;18597;48.328;7.932;2023-03-21T06:54:43;99672.59;;;11.39;77.44
32083;BME280;18597;48.328;7.932;2023-03-21T06:57:09;99675.00;;;12.60;70.45
32083;BME280;18597;48.328;7.932;2023-03-21T06:59:35;99674.00;;;12.80;65.35
32083;BME280;18597;48.328;7.932;2023-03-21T07:02:01;99671.78;;;11.88;71.93
32083;BME280;18597;48.328;7.932;2023-03-21T07:04:27;99669.53;;;12.13;71.50
32083;BME280;18597;48.328;7.932;2023-03-21T07:06:53;99665.50;;;13.69;61.97
32083;BME280;18597;48.328;7.932;2023-03-21T07:09:19;99663.19;;;14.37;58.85
32083;BME280;18597;48.328;7.932;2023-03-21T07:11:49;99656.28;;;12.40;66.73
32083;BME280;18597;48.328;7.932;2023-03-21T07:14:18;99658.47;;;11.77;73.53
32083;BME280;18597;48.328;7.932;2023-03-21T07:16:44;99646.84;;;13.02;67.07
32083;BME280;18597;48.328;7.932;2023-03-21T07:19:10;99648.97;;;14.09;61.04
32083;BME280;18597;48.328;7.932;2023-03-21T07:21:36;99652.56;;;14.00;57.82
32083;BME280;18597;48.328;7.932;2023-03-21T07:24:02;99651.75;;;12.50;67.39
32083;BME280;18597;48.328;7.932;2023-03-21T07:26:27;99643.88;;;12.20;70.80
32083;BME280;18597;48.328;7.932;2023-03-21T07:28:53;99640.22;;;12.02;73.59
32083;BME280;18597;48.328;7.932;2023-03-21T07:31:19;99642.19;;;12.00;73.44
32083;BME280;18597;48.328;7.932;2023-03-21T07:33:45;99641.63;;;12.25;73.02
32083;BME280;18597;48.328;7.932;2023-03-21T07:36:14;99643.44;;;12.44;71.71
32083;BME280;18597;48.328;7.932;2023-03-21T07:38:42;99642.97;;;12.68;71.00
32083;BME280;18597;48.328;7.932;2023-03-21T07:41:08;99636.06;;;13.22;69.00
32083;BME280;18597;48.328;7.932;2023-03-21T07:43:34;99640.84;;;13.83;61.89
32083;BME280;18597;48.328;7.932;2023-03-21T07:46:01;99640.94;;;13.64;62.32
32083;BME280;18597;48.328;7.932;2023-03-21T07:48:27;99637.50;;;13.06;66.48
32083;BME280;18597;48.328;7.932;2023-03-21T07:50:54;99637.13;;;14.20;62.12
32083;BME280;18597;48.328;7.932;2023-03-21T07:53:20;99640.00;;;15.48;57.06
32083;BME280;18597;48.328;7.932;2023-03-21T07:55:54;99634.00;;;16.45;52.67
32083;BME280;18597;48.328;7.932;2023-03-21T07:58:23;99634.25;;;17.24;50.69
32083;BME280;18597;48.328;7.932;2023-03-21T08:00:48;99641.34;;;17.64;49.46
32083;BME280;18597;48.328;7.932;2023-03-21T08:03:16;99639.34;;;17.10;48.60
32083;BME280;18597;48.328;7.932;2023-03-21T08:05:42;99642.63;;;16.81;49.73
32083;BME280;18597;48.328;7.932;2023-03-21T08:08:09;99640.06;;;16.88;50.51
32083;BME280;18597;48.328;7.932;2023-03-21T08:10:36;99649.94;;;17.20;50.05
32083;BME280;18597;48.328;7.932;2023-03-21T08:13:02;99645.38;;;17.76;48.15
32083;BME280;18597;48.328;7.932;2023-03-21T08:15:28;99644.16;;;18.10;47.46
32083;BME280;18597;48.328;7.932;2023-03-21T08:17:54;99654.59;;;18.36;46.22
32083;BME280;18597;48.328;7.932;2023-03-21T08:20:21;99645.34;;;18.07;46.45
32083;BME280;18597;48.328;7.932;2023-03-21T08:22:48;99637.06;;;18.32;46.86
32083;BME280;18597;48.328;7.932;2023-03-21T08:25:16;99640.03;;;18.22;46.12
32083;BME280;18597;48.328;7.932;2023-03-21T08:27:44;99639.66;;;17.63;47.70
32083;BME280;18597;48.328;7.932;2023-03-21T08:30:13;99633.69;;;17.36;48.99
32083;BME280;18597;48.328;7.932;2023-03-21T08:32:39;99635.31;;;17.06;50.06
32083;BME280;18597;48.328;7.932;2023-03-21T08:35:09;99633.50;;;16.82;51.05
32083;BME280;18597;48.328;7.932;2023-03-21T08:37:37;99636.56;;;16.71;51.07
32083;BME280;18597;48.328;7.932;2023-03-21T08:40:05;99629.97;;;16.65;51.48
32083;BME280;18597;48.328;7.932;2023-03-21T08:42:33;99631.97;;;16.47;52.68
32083;BME280;18597;48.328;7.932;2023-03-21T08:45:00;99629.63;;;16.44;53.08
32083;BME280;18597;48.328;7.932;2023-03-21T08:47:25;99633.84;;;16.38;54.00
32083;BME280;18597;48.328;7.932;2023-03-21T08:49:51;99634.53;;;16.32;54.05
32083;BME280;18597;48.328;7.932;2023-03-21T08:52:17;99632.16;;;16.37;53.92
32083;BME280;18597;48.328;7.932;2023-03-21T08:54:43;99627.78;;;16.45;53.11
32083;BME280;18597;48.328;7.932;2023-03-21T08:57:10;99631.81;;;16.57;52.11
32083;BME280;18597;48.328;7.932;2023-03-21T08:59:36;99624.09;;;16.70;51.97
32083;BME280;18597;48.328;7.932;2023-03-21T09:02:03;99630.47;;;16.77;50.31
32083;BME280;18597;48.328;7.932;2023-03-21T09:04:29;99629.47;;;16.78;49.84
32083;BME280;18597;48.328;7.932;2023-03-21T09:06:56;99625.22;;;16.92;49.82
32083;BME280;18597;48.328;7.932;2023-03-21T09:09:22;99627.03;;;17.16;50.44
32083;BME280;18597;48.328;7.932;2023-03-21T09:11:48;99626.72;;;17.50;49.25
32083;BME280;18597;48.328;7.932;2023-03-21T09:14:14;99631.91;;;17.91;48.06
32083;BME280;18597;48.328;7.932;2023-03-21T09:16:40;99619.38;;;18.21;47.05
32083;BME280;18597;48.328;7.932;2023-03-21T09:19:05;99622.50;;;18.55;46.10
32083;BME280;18597;48.328;7.932;2023-03-21T09:21:33;99619.78;;;18.78;44.84
32083;BME280;18597;48.328;7.932;2023-03-21T09:24:00;99619.88;;;18.85;44.17
32083;BME280;18597;48.328;7.932;2023-03-21T09:26:27;99615.94;;;18.88;44.35
32083;BME280;18597;48.328;7.932;2023-03-21T09:28:54;99623.44;;;19.00;43.51
32083;BME280;18597;48.328;7.932;2023-03-21T09:31:21;99630.44;;;18.95;42.92
32083;BME280;18597;48.328;7.932;2023-03-21T09:33:49;99624.19;;;19.09;43.48
32083;BME280;18597;48.328;7.932;2023-03-21T09:36:17;99614.00;;;19.40;42.76
32083;BME280;18597;48.328;7.932;2023-03-21T09:38:47;99613.03;;;19.78;42.04
32083;BME280;18597;48.328;7.932;2023-03-21T09:44:41;99611.69;;;20.31;41.60
32083;BME280;18597;48.328;7.932;2023-03-21T09:47:24;99616.56;;;20.36;40.38
32083;BME280;18597;48.328;7.932;2023-03-21T09:50:05;99615.53;;;20.58;40.21
32083;BME280;18597;48.328;7.932;2023-03-21T09:52:46;99613.41;;;20.54;39.72
32083;BME280;18597;48.328;7.932;2023-03-21T09:55:23;99609.19;;;20.30;40.05
32083;BME280;18597;48.328;7.932;2023-03-21T09:58:51;99611.09;;;19.93;40.69
32083;BME280;18597;48.328;7.932;2023-03-21T10:01:15;99614.53;;;19.80;40.70
32083;BME280;18597;48.328;7.932;2023-03-21T10:03:52;99609.22;;;19.93;40.15
32083;BME280;18597;48.328;7.932;2023-03-21T10:06:22;99598.16;;;19.88;40.69
32083;BME280;18597;48.328;7.932;2023-03-21T10:08:59;99594.47;;;19.96;40.09
32083;BME280;18597;48.328;7.932;2023-03-21T10:11:46;99592.28;;;20.06;40.41
32083;BME280;18597;48.328;7.932;2023-03-21T10:14:30;99596.47;;;20.09;40.04
32083;BME280;18597;48.328;7.932;2023-03-21T10:17:34;99600.34;;;20.21;39.13
32083;BME280;18597;48.328;7.932;2023-03-21T10:20:18;99597.16;;;20.39;39.12
32083;BME280;18597;48.328;7.932;2023-03-21T10:22:43;99588.88;;;20.68;39.28
32083;BME280;18597;48.328;7.932;2023-03-21T10:25:19;99589.47;;;20.64;38.46
32083;BME280;18597;48.328;7.932;2023-03-21T10:27:47;99585.81;;;20.50;38.34
32083;BME280;18597;48.328;7.932;2023-03-21T10:33:22;99581.56;;;20.69;38.66
32083;BME280;18597;48.328;7.932;2023-03-21T10:35:55;99576.75;;;20.64;38.09
32083;BME280;18597;48.328;7.932;2023-03-21T10:38:24;99573.22;;;20.70;38.44
32083;BME280;18597;48.328;7.932;2023-03-21T10:40:52;99578.66;;;20.70;38.70
32083;BME280;18597;48.328;7.932;2023-03-21T10:43:32;99572.75;;;20.60;38.44
32083;BME280;18597;48.328;7.932;2023-03-21T10:48:36;99569.53;;;20.07;38.85
32083;BME280;18597;48.328;7.932;2023-03-21T10:51:07;99564.44;;;19.98;39.66
32083;BME280;18597;48.328;7.932;2023-03-21T10:53:38;99559.16;;;19.89;39.88
32083;BME280;18597;48.328;7.932;2023-03-21T10:56:08;99558.28;;;19.53;40.51
32083;BME280;18597;48.328;7.932;2023-03-21T10:58:41;99557.84;;;19.34;40.49
32083;BME280;18597;48.328;7.932;2023-03-21T11:01:22;99552.84;;;19.17;41.29
32083;BME280;18597;48.328;7.932;2023-03-21T11:03:57;99554.25;;;18.68;42.34
32083;BME280;18597;48.328;7.932;2023-03-21T11:06:30;99546.72;;;18.41;42.81
32083;BME280;18597;48.328;7.932;2023-03-21T11:09:12;99549.72;;;18.08;43.05
32083;BME280;18597;48.328;7.932;2023-03-21T11:14:42;99541.38;;;17.95;43.79
32083;BME280;18597;48.328;7.932;2023-03-21T11:20:03;99535.59;;;17.75;43.71
32083;BME280;18597;48.328;7.932;2023-03-21T11:22:39;99531.66;;;17.86;44.01
32083;BME280;18597;48.328;7.932;2023-03-21T11:25:14;99521.72;;;17.78;43.74
32083;BME280;18597;48.328;7.932;2023-03-21T11:27:51;99522.28;;;17.65;44.54
32083;BME280;18597;48.328;7.932;2023-03-21T11:30:24;99521.97;;;17.91;44.28
32083;BME280;18597;48.328;7.932;2023-03-21T11:32:56;99515.72;;;18.14;43.35
32083;BME280;18597;48.328;7.932;2023-03-21T11:35:35;99502.97;;;18.37;42.27
32083;BME280;18597;48.328;7.932;2023-03-21T11:38:01;99505.88;;;18.50;41.39
32083;BME280;18597;48.328;7.932;2023-03-21T11:40:36;99496.16;;;18.56;41.00
32083;BME280;18597;48.328;7.932;2023-03-21T11:46:07;99483.22;;;18.51;41.43
32083;BME280;18597;48.328;7.932;2023-03-21T11:48:41;99488.69;;;18.43;41.06
32083;BME280;18597;48.328;7.932;2023-03-21T11:51:23;99483.97;;;18.45;40.69
32083;BME280;18597;48.328;7.932;2023-03-21T11:54:19;99491.22;;;18.45;41.10
32083;BME280;18597;48.328;7.932;2023-03-21T11:59:41;99482.56;;;18.94;41.02
32083;BME280;18597;48.328;7.932;2023-03-21T12:05:55;99477.78;;;19.10;40.89
32083;BME280;18597;48.328;7.932;2023-03-21T12:11:42;99475.88;;;19.83;39.26
32083;BME280;18597;48.328;7.932;2023-03-21T12:14:31;99475.41;;;20.01;39.29
32083;BME280;18597;48.328;7.932;2023-03-21T12:20:52;99468.72;;;20.88;37.42
32083;BME280;18597;48.328;7.932;2023-03-21T12:23:46;99457.31;;;21.12;36.45
32083;BME280;18597;48.328;7.932;2023-03-21T12:26:55;99454.06;;;21.30;36.20
32083;BME280;18597;48.328;7.932;2023-03-21T12:29:49;99457.69;;;21.57;36.28
32083;BME280;18597;48.328;7.932;2023-03-21T12:35:42;99446.56;;;21.45;34.90
32083;BME280;18597;48.328;7.932;2023-03-21T12:38:22;99448.25;;;21.40;35.31
32083;BME280;18597;48.328;7.932;2023-03-21T12:43:55;99450.72;;;21.35;36.51
32083;BME280;18597;48.328;7.932;2023-03-21T12:46:50;99444.94;;;21.57;35.88
32083;BME280;18597;48.328;7.932;2023-03-21T12:49:34;99441.59;;;21.75;36.31
32083;BME280;18597;48.328;7.932;2023-03-21T12:52:07;99439.09;;;21.94;35.05
32083;BME280;18597;48.328;7.932;2023-03-21T12:54:41;99439.09;;;21.94;35.22
32083;BME280;18597;48.328;7.932;2023-03-21T12:57:31;99432.59;;;21.88;35.18
32083;BME280;18597;48.328;7.932;2023-03-21T13:00:21;99436.59;;;21.72;35.28
32083;BME280;18597;48.328;7.932;2023-03-21T13:03:03;99433.44;;;21.88;35.82
32083;BME280;18597;48.328;7.932;2023-03-21T13:05:45;99420.69;;;21.63;35.50
32083;BME280;18597;48.328;7.932;2023-03-21T13:08:39;99423.31;;;21.29;36.65
32083;BME280;18597;48.328;7.932;2023-03-21T13:11:12;99424.41;;;21.35;36.17
32083;BME280;18597;48.328;7.932;2023-03-21T13:14:05;99420.66;;;21.43;35.93
32083;BME280;18597;48.328;7.932;2023-03-21T13:16:46;99411.56;;;21.16;36.04
32083;BME280;18597;48.328;7.932;2023-03-21T13:19:45;99416.47;;;21.33;36.68
32083;BME280;18597;48.328;7.932;2023-03-21T13:22:28;99412.84;;;21.26;35.34
32083;BME280;18597;48.328;7.932;2023-03-21T13:25:19;99411.78;;;21.21;35.96
32083;BME280;18597;48.328;7.932;2023-03-21T13:28:02;99411.13;;;21.05;35.51
32083;BME280;18597;48.328;7.932;2023-03-21T13:30:30;99414.59;;;20.80;36.58
32083;BME280;18597;48.328;7.932;2023-03-21T13:33:10;99406.09;;;20.48;36.61
32083;BME280;18597;48.328;7.932;2023-03-21T13:35:41;99401.09;;;20.23;37.17
32083;BME280;18597;48.328;7.932;2023-03-21T13:40:57;99403.81;;;20.23;37.94
32083;BME280;18597;48.328;7.932;2023-03-21T13:46:52;99401.78;;;20.67;37.34
32083;BME280;18597;48.328;7.932;2023-03-21T13:49:33;99403.94;;;20.85;37.23
32083;BME280;18597;48.328;7.932;2023-03-21T14:00:29;99386.38;;;21.68;35.98
32083;BME280;18597;48.328;7.932;2023-03-21T14:03:04;99381.78;;;21.82;35.76
32083;BME280;18597;48.328;7.932;2023-03-21T14:05:32;99381.59;;;21.77;35.60
32083;BME280;18597;48.328;7.932;2023-03-21T14:08:05;99379.06;;;21.82;35.52
32083;BME280;18597;48.328;7.932;2023-03-21T14:10:37;99378.84;;;21.83;35.17
32083;BME280;18597;48.328;7.932;2023-03-21T14:13:05;99375.28;;;21.89;35.59
32083;BME280;18597;48.328;7.932;2023-03-21T14:15:41;99374.66;;;22.01;35.68
32083;BME280;18597;48.328;7.932;2023-03-21T14:18:15;99374.44;;;21.96;34.93
32083;BME280;18597;48.328;7.932;2023-03-21T14:20:41;99370.50;;;21.78;35.04
32083;BME280;18597;48.328;7.932;2023-03-21T14:23:14;99371.72;;;21.82;35.56
32083;BME280;18597;48.328;7.932;2023-03-21T14:25:41;99376.56;;;21.54;35.22
32083;BME280;18597;48.328;7.932;2023-03-21T14:30:56;99365.88;;;21.46;35.22
32083;BME280;18597;48.328;7.932;2023-03-21T14:33:37;99366.66;;;21.20;36.47
32083;BME280;18597;48.328;7.932;2023-03-21T14:36:14;99364.94;;;21.05;36.38